sensor_id;sensor_type;location;lat;lon;timestamp;P1;durP1;ratioP1;P2;durP2;ratioP2
12840;SDS011;6487;48.626;12.486;2023-12-20T00:01:55;8.47;;;6.40;;
12840;SDS011;6487;48.626;12.486;2023-12-20T00:04:24;9.90;;;6.70;;
12840;SDS011;6487;48.626;12.486;2023-12-20T00:06:52;7.43;;;6.63;;
12840;SDS011;6487;48.626;12.486;2023-12-20T00:09:21;7.80;;;6.37;;
12840;SDS011;6487;48.626;12.486;2023-12-20T00:11:49;9.60;;;5.83;;
12840;SDS011;6487;48.626;12.486;2023-12-20T00:14:18;7.10;;;6.20;;
12840;SDS011;6487;48.626;12.486;2023-12-20T00:16:48;6.73;;;5.80;;
12840;SDS011;6487;48.626;12.486;2023-12-20T00:19:16;6.53;;;5.93;;
12840;SDS011;6487;48.626;12.486;2023-12-20T00:21:45;10.33;;;7.77;;
12840;SDS011;6487;48.626;12.486;2023-12-20T00:24:13;11.37;;;7.73;;
12840;SDS011;6487;48.626;12.486;2023-12-20T00:26:42;12.13;;;9.33;;
12840;SDS011;6487;48.626;12.486;2023-12-20T00:29:11;9.63;;;8.57;;
12840;SDS011;6487;48.626;12.486;2023-12-20T00:31:39;10.20;;;8.80;;
12840;SDS011;6487;48.626;12.486;2023-12-20T00:34:09;10.83;;;8.37;;
12840;SDS011;6487;48.626;12.486;2023-12-20T00:36:38;10.70;;;8.97;;
12840;SDS011;6487;48.626;12.486;2023-12-20T00:39:06;11.00;;;8.90;;
12840;SDS011;6487;48.626;12.486;2023-12-20T00:41:35;9.90;;;7.73;;
12840;SDS011;6487;48.626;12.486;2023-12-20T00:44:03;9.40;;;8.50;;
12840;SDS011;6487;48.626;12.486;2023-12-20T00:46:32;11.87;;;8.47;;
12840;SDS011;6487;48.626;12.486;2023-12-20T00:49:00;10.37;;;8.77;;
12840;SDS011;6487;48.626;12.486;2023-12-20T00:51:30;14.47;;;8.67;;
12840;SDS011;6487;48.626;12.486;2023-12-20T00:54:02;8.77;;;7.87;;
12840;SDS011;6487;48.626;12.486;2023-12-20T00:56:30;11.00;;;7.70;;
12840;SDS011;6487;48.626;12.486;2023-12-20T00:58:59;9.47;;;7.43;;
12840;SDS011;6487;48.626;12.486;2023-12-20T01:01:27;9.07;;;7.77;;
12840;SDS011;6487;48.626;12.486;2023-12-20T01:03:56;9.63;;;8.20;;
12840;SDS011;6487;48.626;12.486;2023-12-20T01:06:25;8.40;;;7.33;;
12840;SDS011;6487;48.626;12.486;2023-12-20T01:08:55;12.60;;;8.10;;
12840;SDS011;6487;48.626;12.486;2023-12-20T01:11:23;7.70;;;6.47;;
12840;SDS011;6487;48.626;12.486;2023-12-20T01:13:51;9.07;;;7.17;;
12840;SDS011;6487;48.626;12.486;2023-12-20T01:16:20;9.70;;;7.60;;
12840;SDS011;6487;48.626;12.486;2023-12-20T01:18:48;8.03;;;7.20;;
12840;SDS011;6487;48.626;12.486;2023-12-20T01:21:17;8.77;;;7.57;;
12840;SDS011;6487;48.626;12.486;2023-12-20T01:23:45;10.00;;;7.87;;
12840;SDS011;6487;48.626;12.486;2023-12-20T01:26:15;8.30;;;7.03;;
12840;SDS011;6487;48.626;12.486;2023-12-20T01:28:44;8.67;;;7.67;;
12840;SDS011;6487;48.626;12.486;2023-12-20T01:31:12;8.87;;;7.50;;
12840;SDS011;6487;48.626;12.486;2023-12-20T01:33:41;10.10;;;7.40;;
12840;SDS011;6487;48.626;12.486;2023-12-20T01:36:10;9.55;;;8.68;;
12840;SDS011;6487;48.626;12.486;2023-12-20T01:38:38;10.80;;;9.27;;
12840;SDS011;6487;48.626;12.486;2023-12-20T01:41:09;10.40;;;8.03;;
12840;SDS011;6487;48.626;12.486;2023-12-20T01:43:39;9.00;;;8.10;;
12840;SDS011;6487;48.626;12.486;2023-12-20T01:46:17;7.97;;;6.73;;
12840;SDS011;6487;48.626;12.486;2023-12-20T01:48:47;8.57;;;6.67;;
12840;SDS011;6487;48.626;12.486;2023-12-20T01:51:16;7.63;;;6.57;;
12840;SDS011;6487;48.626;12.486;2023-12-20T01:53:45;7.37;;;6.60;;
12840;SDS011;6487;48.626;12.486;2023-12-20T01:56:14;7.77;;;6.53;;
12840;SDS011;6487;48.626;12.486;2023-12-20T01:58:45;8.00;;;7.07;;
12840;SDS011;6487;48.626;12.486;2023-12-20T02:01:15;10.00;;;7.10;;
12840;SDS011;6487;48.626;12.486;2023-12-20T02:03:45;9.27;;;6.83;;
12840;SDS011;6487;48.626;12.486;2023-12-20T02:06:13;8.40;;;7.40;;
12840;SDS011;6487;48.626;12.486;2023-12-20T02:08:43;10.87;;;8.40;;
12840;SDS011;6487;48.626;12.486;2023-12-20T02:11:12;9.37;;;7.57;;
12840;SDS011;6487;48.626;12.486;2023-12-20T02:13:39;10.03;;;7.03;;
12840;SDS011;6487;48.626;12.486;2023-12-20T02:16:09;9.93;;;8.57;;
12840;SDS011;6487;48.626;12.486;2023-12-20T02:18:38;10.00;;;8.13;;
12840;SDS011;6487;48.626;12.486;2023-12-20T02:21:07;11.33;;;7.67;;
12840;SDS011;6487;48.626;12.486;2023-12-20T02:23:39;10.87;;;8.93;;
12840;SDS011;6487;48.626;12.486;2023-12-20T02:26:07;12.10;;;9.20;;
12840;SDS011;6487;48.626;12.486;2023-12-20T02:28:40;10.83;;;8.50;;
12840;SDS011;6487;48.626;12.486;2023-12-20T02:31:08;13.00;;;10.53;;
12840;SDS011;6487;48.626;12.486;2023-12-20T02:33:37;14.20;;;9.83;;
12840;SDS011;6487;48.626;12.486;2023-12-20T02:36:08;11.33;;;9.33;;
12840;SDS011;6487;48.626;12.486;2023-12-20T02:38:36;11.67;;;9.40;;
12840;SDS011;6487;48.626;12.486;2023-12-20T02:41:06;14.20;;;10.87;;
12840;SDS011;6487;48.626;12.486;2023-12-20T02:43:34;11.60;;;10.13;;
12840;SDS011;6487;48.626;12.486;2023-12-20T02:46:03;11.40;;;10.20;;
12840;SDS011;6487;48.626;12.486;2023-12-20T02:48:31;14.20;;;10.43;;
12840;SDS011;6487;48.626;12.486;2023-12-20T02:51:00;11.87;;;9.90;;
12840;SDS011;6487;48.626;12.486;2023-12-20T02:53:28;13.47;;;8.53;;
12840;SDS011;6487;48.626;12.486;2023-12-20T02:55:58;11.17;;;8.20;;
12840;SDS011;6487;48.626;12.486;2023-12-20T02:58:26;10.63;;;8.87;;
12840;SDS011;6487;48.626;12.486;2023-12-20T03:00:55;9.70;;;8.37;;
12840;SDS011;6487;48.626;12.486;2023-12-20T03:03:23;12.33;;;9.13;;
12840;SDS011;6487;48.626;12.486;2023-12-20T03:05:52;11.90;;;9.37;;
12840;SDS011;6487;48.626;12.486;2023-12-20T03:08:21;10.90;;;8.73;;
12840;SDS011;6487;48.626;12.486;2023-12-20T03:10:49;9.63;;;8.63;;
12840;SDS011;6487;48.626;12.486;2023-12-20T03:13:22;9.33;;;8.43;;
12840;SDS011;6487;48.626;12.486;2023-12-20T03:15:51;11.03;;;8.50;;
12840;SDS011;6487;48.626;12.486;2023-12-20T03:18:19;10.60;;;8.57;;
12840;SDS011;6487;48.626;12.486;2023-12-20T03:20:47;9.10;;;7.37;;
12840;SDS011;6487;48.626;12.486;2023-12-20T03:23:17;7.63;;;6.43;;
12840;SDS011;6487;48.626;12.486;2023-12-20T03:25:45;7.40;;;6.17;;
12840;SDS011;6487;48.626;12.486;2023-12-20T03:28:14;6.57;;;5.87;;
12840;SDS011;6487;48.626;12.486;2023-12-20T03:30:44;6.73;;;5.80;;
12840;SDS011;6487;48.626;12.486;2023-12-20T03:33:12;6.73;;;4.60;;
12840;SDS011;6487;48.626;12.486;2023-12-20T03:35:44;7.00;;;5.40;;
12840;SDS011;6487;48.626;12.486;2023-12-20T03:38:13;7.03;;;4.83;;
12840;SDS011;6487;48.626;12.486;2023-12-20T03:40:41;7.90;;;4.73;;
12840;SDS011;6487;48.626;12.486;2023-12-20T03:43:10;5.27;;;3.90;;
12840;SDS011;6487;48.626;12.486;2023-12-20T03:45:43;6.03;;;4.87;;
12840;SDS011;6487;48.626;12.486;2023-12-20T03:48:13;5.03;;;4.53;;
12840;SDS011;6487;48.626;12.486;2023-12-20T03:50:42;6.13;;;4.37;;
12840;SDS011;6487;48.626;12.486;2023-12-20T03:53:10;4.93;;;3.97;;
12840;SDS011;6487;48.626;12.486;2023-12-20T03:55:39;4.37;;;3.73;;
12840;SDS011;6487;48.626;12.486;2023-12-20T03:58:07;5.07;;;4.57;;
12840;SDS011;6487;48.626;12.486;2023-12-20T04:00:35;6.43;;;5.37;;
12840;SDS011;6487;48.626;12.486;2023-12-20T04:03:05;4.93;;;4.27;;
12840;SDS011;6487;48.626;12.486;2023-12-20T04:05:35;5.50;;;4.13;;
12840;SDS011;6487;48.626;12.486;2023-12-20T04:08:03;5.17;;;4.37;;
12840;SDS011;6487;48.626;12.486;2023-12-20T04:10:33;5.23;;;3.73;;
12840;SDS011;6487;48.626;12.486;2023-12-20T04:13:01;4.47;;;3.93;;
12840;SDS011;6487;48.626;12.486;2023-12-20T04:15:30;3.90;;;3.50;;
12840;SDS011;6487;48.626;12.486;2023-12-20T04:17:58;4.47;;;3.80;;
12840;SDS011;6487;48.626;12.486;2023-12-20T04:20:28;6.70;;;4.30;;
12840;SDS011;6487;48.626;12.486;2023-12-20T04:22:57;4.70;;;4.00;;
12840;SDS011;6487;48.626;12.486;2023-12-20T04:25:25;5.03;;;4.13;;
12840;SDS011;6487;48.626;12.486;2023-12-20T04:27:54;5.73;;;3.93;;
12840;SDS011;6487;48.626;12.486;2023-12-20T04:30:22;6.80;;;4.23;;
12840;SDS011;6487;48.626;12.486;2023-12-20T04:32:51;9.27;;;4.60;;
12840;SDS011;6487;48.626;12.486;2023-12-20T04:35:19;5.07;;;4.20;;
12840;SDS011;6487;48.626;12.486;2023-12-20T04:37:49;6.80;;;4.17;;
12840;SDS011;6487;48.626;12.486;2023-12-20T04:40:18;4.83;;;4.33;;
12840;SDS011;6487;48.626;12.486;2023-12-20T04:42:46;4.83;;;4.03;;
12840;SDS011;6487;48.626;12.486;2023-12-20T04:45:15;5.60;;;4.40;;
12840;SDS011;6487;48.626;12.486;2023-12-20T04:47:45;4.80;;;4.23;;
12840;SDS011;6487;48.626;12.486;2023-12-20T04:50:15;4.90;;;4.40;;
12840;SDS011;6487;48.626;12.486;2023-12-20T04:52:43;5.47;;;3.80;;
12840;SDS011;6487;48.626;12.486;2023-12-20T04:55:13;5.73;;;3.83;;
12840;SDS011;6487;48.626;12.486;2023-12-20T04:57:45;4.47;;;3.73;;
12840;SDS011;6487;48.626;12.486;2023-12-20T05:00:14;4.57;;;4.13;;
12840;SDS011;6487;48.626;12.486;2023-12-20T05:02:43;4.60;;;3.80;;
12840;SDS011;6487;48.626;12.486;2023-12-20T05:05:11;5.20;;;4.03;;
12840;SDS011;6487;48.626;12.486;2023-12-20T05:07:44;3.43;;;3.13;;
12840;SDS011;6487;48.626;12.486;2023-12-20T05:10:14;4.33;;;3.47;;
12840;SDS011;6487;48.626;12.486;2023-12-20T05:12:43;7.50;;;4.10;;
12840;SDS011;6487;48.626;12.486;2023-12-20T05:15:11;4.37;;;3.33;;
12840;SDS011;6487;48.626;12.486;2023-12-20T05:17:40;4.83;;;3.90;;
12840;SDS011;6487;48.626;12.486;2023-12-20T05:20:09;5.10;;;3.23;;
12840;SDS011;6487;48.626;12.486;2023-12-20T05:22:38;3.00;;;2.70;;
12840;SDS011;6487;48.626;12.486;2023-12-20T05:25:09;2.83;;;2.63;;
12840;SDS011;6487;48.626;12.486;2023-12-20T05:27:39;3.03;;;2.40;;
12840;SDS011;6487;48.626;12.486;2023-12-20T05:30:08;3.57;;;2.80;;
12840;SDS011;6487;48.626;12.486;2023-12-20T05:32:37;3.23;;;2.53;;
12840;SDS011;6487;48.626;12.486;2023-12-20T05:35:08;3.10;;;2.47;;
12840;SDS011;6487;48.626;12.486;2023-12-20T05:37:42;2.97;;;2.47;;
12840;SDS011;6487;48.626;12.486;2023-12-20T05:40:11;3.10;;;2.80;;
12840;SDS011;6487;48.626;12.486;2023-12-20T05:42:41;3.83;;;1.93;;
12840;SDS011;6487;48.626;12.486;2023-12-20T05:45:10;2.83;;;2.37;;
12840;SDS011;6487;48.626;12.486;2023-12-20T05:47:42;2.90;;;1.70;;
12840;SDS011;6487;48.626;12.486;2023-12-20T05:50:14;2.87;;;1.83;;
12840;SDS011;6487;48.626;12.486;2023-12-20T05:52:43;3.67;;;1.93;;
12840;SDS011;6487;48.626;12.486;2023-12-20T05:55:11;1.90;;;1.80;;
12840;SDS011;6487;48.626;12.486;2023-12-20T05:57:41;2.73;;;1.60;;
12840;SDS011;6487;48.626;12.486;2023-12-20T06:00:11;1.80;;;1.70;;
12840;SDS011;6487;48.626;12.486;2023-12-20T06:02:41;2.03;;;1.60;;
12840;SDS011;6487;48.626;12.486;2023-12-20T06:05:10;2.03;;;1.83;;
12840;SDS011;6487;48.626;12.486;2023-12-20T06:07:39;1.80;;;1.60;;
12840;SDS011;6487;48.626;12.486;2023-12-20T06:10:08;2.57;;;1.87;;
12840;SDS011;6487;48.626;12.486;2023-12-20T06:12:37;1.70;;;1.60;;
12840;SDS011;6487;48.626;12.486;2023-12-20T06:15:07;1.73;;;1.63;;
12840;SDS011;6487;48.626;12.486;2023-12-20T06:17:36;2.77;;;1.93;;
12840;SDS011;6487;48.626;12.486;2023-12-20T06:20:05;2.93;;;1.90;;
12840;SDS011;6487;48.626;12.486;2023-12-20T06:22:35;2.60;;;2.10;;
12840;SDS011;6487;48.626;12.486;2023-12-20T06:25:07;3.03;;;2.07;;
12840;SDS011;6487;48.626;12.486;2023-12-20T06:27:36;2.50;;;2.30;;
12840;SDS011;6487;48.626;12.486;2023-12-20T06:30:05;2.30;;;2.10;;
12840;SDS011;6487;48.626;12.486;2023-12-20T06:32:36;2.03;;;1.77;;
12840;SDS011;6487;48.626;12.486;2023-12-20T06:35:06;2.70;;;2.00;;
12840;SDS011;6487;48.626;12.486;2023-12-20T06:37:38;1.67;;;1.57;;
12840;SDS011;6487;48.626;12.486;2023-12-20T06:40:09;2.30;;;2.10;;
12840;SDS011;6487;48.626;12.486;2023-12-20T06:42:44;2.43;;;2.10;;
12840;SDS011;6487;48.626;12.486;2023-12-20T06:45:32;4.33;;;2.10;;
12840;SDS011;6487;48.626;12.486;2023-12-20T06:48:00;3.10;;;1.80;;
12840;SDS011;6487;48.626;12.486;2023-12-20T06:50:29;2.10;;;1.70;;
12840;SDS011;6487;48.626;12.486;2023-12-20T06:52:57;2.47;;;1.77;;
12840;SDS011;6487;48.626;12.486;2023-12-20T06:55:26;2.80;;;1.57;;
12840;SDS011;6487;48.626;12.486;2023-12-20T06:57:54;1.93;;;1.70;;
12840;SDS011;6487;48.626;12.486;2023-12-20T07:00:22;1.63;;;1.53;;
12840;SDS011;6487;48.626;12.486;2023-12-20T07:02:52;3.43;;;2.00;;
12840;SDS011;6487;48.626;12.486;2023-12-20T07:05:21;2.37;;;1.90;;
12840;SDS011;6487;48.626;12.486;2023-12-20T07:07:49;1.80;;;1.33;;
12840;SDS011;6487;48.626;12.486;2023-12-20T07:10:18;1.67;;;1.57;;
12840;SDS011;6487;48.626;12.486;2023-12-20T07:12:46;1.40;;;1.30;;
12840;SDS011;6487;48.626;12.486;2023-12-20T07:15:15;1.63;;;1.20;;
12840;SDS011;6487;48.626;12.486;2023-12-20T07:17:44;3.20;;;1.30;;
12840;SDS011;6487;48.626;12.486;2023-12-20T07:20:15;1.50;;;1.30;;
12840;SDS011;6487;48.626;12.486;2023-12-20T07:22:46;1.60;;;1.30;;
12840;SDS011;6487;48.626;12.486;2023-12-20T07:25:15;1.23;;;1.13;;
12840;SDS011;6487;48.626;12.486;2023-12-20T07:27:43;2.30;;;1.40;;
12840;SDS011;6487;48.626;12.486;2023-12-20T07:30:12;1.83;;;1.60;;
12840;SDS011;6487;48.626;12.486;2023-12-20T07:32:41;2.20;;;1.50;;
12840;SDS011;6487;48.626;12.486;2023-12-20T07:35:10;2.20;;;1.60;;
12840;SDS011;6487;48.626;12.486;2023-12-20T07:37:45;1.97;;;1.67;;
12840;SDS011;6487;48.626;12.486;2023-12-20T07:40:13;1.93;;;1.60;;
12840;SDS011;6487;48.626;12.486;2023-12-20T07:42:43;1.80;;;1.70;;
12840;SDS011;6487;48.626;12.486;2023-12-20T07:45:11;2.00;;;1.70;;
12840;SDS011;6487;48.626;12.486;2023-12-20T07:47:41;1.77;;;1.53;;
12840;SDS011;6487;48.626;12.486;2023-12-20T07:50:09;1.73;;;1.63;;
12840;SDS011;6487;48.626;12.486;2023-12-20T07:52:41;2.17;;;1.93;;
12840;SDS011;6487;48.626;12.486;2023-12-20T07:55:10;2.03;;;1.90;;
12840;SDS011;6487;48.626;12.486;2023-12-20T07:57:39;3.53;;;2.30;;
12840;SDS011;6487;48.626;12.486;2023-12-20T08:00:08;2.77;;;2.57;;
12840;SDS011;6487;48.626;12.486;2023-12-20T08:02:41;3.30;;;3.00;;
12840;SDS011;6487;48.626;12.486;2023-12-20T08:05:11;2.80;;;2.50;;
12840;SDS011;6487;48.626;12.486;2023-12-20T08:07:42;2.33;;;2.13;;
12840;SDS011;6487;48.626;12.486;2023-12-20T08:10:15;3.13;;;2.83;;
12840;SDS011;6487;48.626;12.486;2023-12-20T08:12:45;2.30;;;2.10;;
12840;SDS011;6487;48.626;12.486;2023-12-20T08:15:14;2.00;;;1.90;;
12840;SDS011;6487;48.626;12.486;2023-12-20T08:17:42;2.17;;;1.97;;
12840;SDS011;6487;48.626;12.486;2023-12-20T08:20:11;3.77;;;2.50;;
12840;SDS011;6487;48.626;12.486;2023-12-20T08:22:48;2.57;;;2.30;;
12840;SDS011;6487;48.626;12.486;2023-12-20T08:25:18;1.83;;;1.73;;
12840;SDS011;6487;48.626;12.486;2023-12-20T08:27:46;2.33;;;1.37;;
12840;SDS011;6487;48.626;12.486;2023-12-20T08:30:16;2.10;;;1.90;;
12840;SDS011;6487;48.626;12.486;2023-12-20T08:32:47;1.80;;;1.70;;
12840;SDS011;6487;48.626;12.486;2023-12-20T08:35:15;1.90;;;1.80;;
12840;SDS011;6487;48.626;12.486;2023-12-20T08:37:47;8.40;;;7.70;;
12840;SDS011;6487;48.626;12.486;2023-12-20T08:40:15;6.13;;;5.53;;
12840;SDS011;6487;48.626;12.486;2023-12-20T08:42:45;5.73;;;5.20;;
12840;SDS011;6487;48.626;12.486;2023-12-20T08:45:13;4.37;;;3.97;;
12840;SDS011;6487;48.626;12.486;2023-12-20T08:47:42;3.23;;;2.93;;
12840;SDS011;6487;48.626;12.486;2023-12-20T08:50:14;2.80;;;2.50;;
12840;SDS011;6487;48.626;12.486;2023-12-20T08:52:43;3.27;;;2.97;;
12840;SDS011;6487;48.626;12.486;2023-12-20T08:55:11;4.57;;;4.17;;
12840;SDS011;6487;48.626;12.486;2023-12-20T08:57:42;3.10;;;2.80;;
12840;SDS011;6487;48.626;12.486;2023-12-20T09:00:11;3.70;;;3.30;;
12840;SDS011;6487;48.626;12.486;2023-12-20T09:02:41;2.57;;;2.33;;
12840;SDS011;6487;48.626;12.486;2023-12-20T09:05:09;4.57;;;3.80;;
12840;SDS011;6487;48.626;12.486;2023-12-20T09:07:38;2.97;;;2.67;;
12840;SDS011;6487;48.626;12.486;2023-12-20T09:10:07;2.50;;;2.00;;
12840;SDS011;6487;48.626;12.486;2023-12-20T09:12:36;3.00;;;2.70;;
12840;SDS011;6487;48.626;12.486;2023-12-20T09:15:08;2.50;;;2.30;;
12840;SDS011;6487;48.626;12.486;2023-12-20T09:17:37;2.80;;;2.60;;
12840;SDS011;6487;48.626;12.486;2023-12-20T09:20:08;2.80;;;2.60;;
12840;SDS011;6487;48.626;12.486;2023-12-20T09:22:40;3.43;;;2.63;;
12840;SDS011;6487;48.626;12.486;2023-12-20T09:25:09;2.50;;;2.30;;
12840;SDS011;6487;48.626;12.486;2023-12-20T09:27:39;6.77;;;6.10;;
12840;SDS011;6487;48.626;12.486;2023-12-20T09:30:09;4.07;;;3.67;;
12840;SDS011;6487;48.626;12.486;2023-12-20T09:32:53;2.20;;;2.00;;
12840;SDS011;6487;48.626;12.486;2023-12-20T09:35:21;2.77;;;1.67;;
12840;SDS011;6487;48.626;12.486;2023-12-20T09:37:50;1.73;;;1.63;;
12840;SDS011;6487;48.626;12.486;2023-12-20T09:40:19;3.03;;;1.70;;
12840;SDS011;6487;48.626;12.486;2023-12-20T09:42:48;1.70;;;1.50;;
12840;SDS011;6487;48.626;12.486;2023-12-20T09:45:25;1.63;;;1.30;;
12840;SDS011;6487;48.626;12.486;2023-12-20T09:47:54;2.77;;;1.40;;
12840;SDS011;6487;48.626;12.486;2023-12-20T09:50:22;1.57;;;1.47;;
12840;SDS011;6487;48.626;12.486;2023-12-20T09:52:52;1.83;;;1.70;;
12840;SDS011;6487;48.626;12.486;2023-12-20T09:55:22;1.80;;;1.70;;
12840;SDS011;6487;48.626;12.486;2023-12-20T09:57:53;1.60;;;1.50;;
12840;SDS011;6487;48.626;12.486;2023-12-20T10:00:22;1.43;;;1.33;;
12840;SDS011;6487;48.626;12.486;2023-12-20T10:02:53;1.57;;;1.43;;
12840;SDS011;6487;48.626;12.486;2023-12-20T10:05:27;2.50;;;1.90;;
12840;SDS011;6487;48.626;12.486;2023-12-20T10:07:57;2.07;;;1.83;;
12840;SDS011;6487;48.626;12.486;2023-12-20T10:10:28;1.93;;;1.80;;
12840;SDS011;6487;48.626;12.486;2023-12-20T10:13:11;2.00;;;1.80;;
12840;SDS011;6487;48.626;12.486;2023-12-20T10:15:40;3.30;;;2.77;;
12840;SDS011;6487;48.626;12.486;2023-12-20T10:18:11;4.03;;;3.30;;
12840;SDS011;6487;48.626;12.486;2023-12-20T10:20:41;4.47;;;4.07;;
12840;SDS011;6487;48.626;12.486;2023-12-20T10:23:10;3.73;;;3.37;;
12840;SDS011;6487;48.626;12.486;2023-12-20T10:25:39;6.80;;;5.23;;
12840;SDS011;6487;48.626;12.486;2023-12-20T10:28:09;3.37;;;2.63;;
12840;SDS011;6487;48.626;12.486;2023-12-20T10:30:40;2.07;;;1.90;;
12840;SDS011;6487;48.626;12.486;2023-12-20T10:33:11;2.10;;;1.87;;
12840;SDS011;6487;48.626;12.486;2023-12-20T10:35:40;2.17;;;1.83;;
12840;SDS011;6487;48.626;12.486;2023-12-20T10:38:12;1.80;;;1.70;;
12840;SDS011;6487;48.626;12.486;2023-12-20T10:40:43;3.27;;;1.60;;
12840;SDS011;6487;48.626;12.486;2023-12-20T10:43:13;2.20;;;1.80;;
12840;SDS011;6487;48.626;12.486;2023-12-20T10:45:43;2.70;;;1.90;;
12840;SDS011;6487;48.626;12.486;2023-12-20T10:48:13;1.97;;;1.77;;
12840;SDS011;6487;48.626;12.486;2023-12-20T10:50:43;1.80;;;1.70;;
12840;SDS011;6487;48.626;12.486;2023-12-20T10:53:13;1.90;;;1.70;;
12840;SDS011;6487;48.626;12.486;2023-12-20T10:55:43;2.10;;;1.90;;
12840;SDS011;6487;48.626;12.486;2023-12-20T10:58:13;2.10;;;1.77;;
12840;SDS011;6487;48.626;12.486;2023-12-20T11:00:43;2.77;;;2.30;;
12840;SDS011;6487;48.626;12.486;2023-12-20T11:03:16;2.07;;;1.87;;
12840;SDS011;6487;48.626;12.486;2023-12-20T11:05:47;2.07;;;1.77;;
12840;SDS011;6487;48.626;12.486;2023-12-20T11:08:23;2.07;;;1.63;;
12840;SDS011;6487;48.626;12.486;2023-12-20T11:11:02;1.50;;;1.40;;
12840;SDS011;6487;48.626;12.486;2023-12-20T11:13:37;1.60;;;1.50;;
12840;SDS011;6487;48.626;12.486;2023-12-20T11:16:20;1.83;;;1.33;;
12840;SDS011;6487;48.626;12.486;2023-12-20T11:18:53;2.30;;;2.10;;
12840;SDS011;6487;48.626;12.486;2023-12-20T11:21:21;1.93;;;1.73;;
12840;SDS011;6487;48.626;12.486;2023-12-20T11:23:52;1.80;;;1.60;;
12840;SDS011;6487;48.626;12.486;2023-12-20T11:26:22;3.07;;;1.67;;
12840;SDS011;6487;48.626;12.486;2023-12-20T11:28:54;3.43;;;2.40;;
12840;SDS011;6487;48.626;12.486;2023-12-20T11:32:01;2.40;;;2.20;;
12840;SDS011;6487;48.626;12.486;2023-12-20T11:34:35;3.10;;;2.70;;
12840;SDS011;6487;48.626;12.486;2023-12-20T11:37:04;3.87;;;2.40;;
12840;SDS011;6487;48.626;12.486;2023-12-20T11:39:32;3.03;;;2.47;;
12840;SDS011;6487;48.626;12.486;2023-12-20T11:42:04;3.33;;;3.00;;
12840;SDS011;6487;48.626;12.486;2023-12-20T11:44:35;2.97;;;2.60;;
12840;SDS011;6487;48.626;12.486;2023-12-20T11:47:04;3.23;;;2.57;;
12840;SDS011;6487;48.626;12.486;2023-12-20T11:49:36;4.63;;;3.40;;
12840;SDS011;6487;48.626;12.486;2023-12-20T11:52:05;4.43;;;3.07;;
12840;SDS011;6487;48.626;12.486;2023-12-20T11:54:34;3.23;;;2.93;;
12840;SDS011;6487;48.626;12.486;2023-12-20T11:57:02;4.77;;;3.53;;
12840;SDS011;6487;48.626;12.486;2023-12-20T11:59:31;5.73;;;4.63;;
12840;SDS011;6487;48.626;12.486;2023-12-20T12:02:00;3.37;;;3.07;;
12840;SDS011;6487;48.626;12.486;2023-12-20T12:04:29;6.87;;;5.37;;
12840;SDS011;6487;48.626;12.486;2023-12-20T12:06:59;13.50;;;8.43;;
12840;SDS011;6487;48.626;12.486;2023-12-20T12:09:31;5.60;;;5.10;;
12840;SDS011;6487;48.626;12.486;2023-12-20T12:12:02;2.97;;;2.70;;
12840;SDS011;6487;48.626;12.486;2023-12-20T12:14:31;2.47;;;2.27;;
12840;SDS011;6487;48.626;12.486;2023-12-20T12:17:01;2.07;;;1.87;;
12840;SDS011;6487;48.626;12.486;2023-12-20T12:19:30;9.77;;;6.73;;
12840;SDS011;6487;48.626;12.486;2023-12-20T12:22:06;4.93;;;2.57;;
12840;SDS011;6487;48.626;12.486;2023-12-20T12:24:41;1.10;;;1.00;;
12840;SDS011;6487;48.626;12.486;2023-12-20T12:27:11;2.43;;;2.23;;
12840;SDS011;6487;48.626;12.486;2023-12-20T12:29:43;1.63;;;1.53;;
12840;SDS011;6487;48.626;12.486;2023-12-20T12:32:29;1.60;;;1.50;;
12840;SDS011;6487;48.626;12.486;2023-12-20T12:34:59;1.20;;;1.10;;
12840;SDS011;6487;48.626;12.486;2023-12-20T12:37:29;1.43;;;1.33;;
12840;SDS011;6487;48.626;12.486;2023-12-20T12:39:58;1.70;;;1.40;;
12840;SDS011;6487;48.626;12.486;2023-12-20T12:42:26;1.43;;;1.10;;
12840;SDS011;6487;48.626;12.486;2023-12-20T12:44:55;1.30;;;1.00;;
12840;SDS011;6487;48.626;12.486;2023-12-20T12:47:23;1.47;;;1.37;;
12840;SDS011;6487;48.626;12.486;2023-12-20T12:49:52;4.63;;;1.97;;
12840;SDS011;6487;48.626;12.486;2023-12-20T12:52:21;1.70;;;1.60;;
12840;SDS011;6487;48.626;12.486;2023-12-20T12:54:51;1.93;;;1.77;;
12840;SDS011;6487;48.626;12.486;2023-12-20T12:57:19;2.20;;;2.00;;
12840;SDS011;6487;48.626;12.486;2023-12-20T12:59:48;2.73;;;2.40;;
12840;SDS011;6487;48.626;12.486;2023-12-20T13:02:17;2.00;;;1.57;;
12840;SDS011;6487;48.626;12.486;2023-12-20T13:04:45;1.93;;;1.60;;
12840;SDS011;6487;48.626;12.486;2023-12-20T13:07:14;3.20;;;1.50;;
12840;SDS011;6487;48.626;12.486;2023-12-20T13:09:43;1.73;;;1.30;;
12840;SDS011;6487;48.626;12.486;2023-12-20T13:12:13;2.33;;;1.67;;
12840;SDS011;6487;48.626;12.486;2023-12-20T13:14:41;2.43;;;1.73;;
12840;SDS011;6487;48.626;12.486;2023-12-20T13:17:11;2.50;;;1.90;;
12840;SDS011;6487;48.626;12.486;2023-12-20T13:19:40;4.63;;;1.90;;
12840;SDS011;6487;48.626;12.486;2023-12-20T13:22:09;1.80;;;1.60;;
12840;SDS011;6487;48.626;12.486;2023-12-20T13:24:38;2.00;;;1.63;;
12840;SDS011;6487;48.626;12.486;2023-12-20T13:27:06;2.73;;;1.60;;
12840;SDS011;6487;48.626;12.486;2023-12-20T13:29:37;3.37;;;2.33;;
12840;SDS011;6487;48.626;12.486;2023-12-20T13:32:06;2.43;;;1.70;;
12840;SDS011;6487;48.626;12.486;2023-12-20T13:34:35;4.47;;;1.80;;
12840;SDS011;6487;48.626;12.486;2023-12-20T13:37:03;2.03;;;1.50;;
12840;SDS011;6487;48.626;12.486;2023-12-20T13:39:32;3.03;;;1.63;;
12840;SDS011;6487;48.626;12.486;2023-12-20T13:42:01;3.80;;;2.00;;
12840;SDS011;6487;48.626;12.486;2023-12-20T13:44:29;7.90;;;4.87;;
12840;SDS011;6487;48.626;12.486;2023-12-20T13:46:59;6.33;;;2.83;;
12840;SDS011;6487;48.626;12.486;2023-12-20T13:49:27;2.20;;;1.60;;
12840;SDS011;6487;48.626;12.486;2023-12-20T13:51:56;2.70;;;1.53;;
12840;SDS011;6487;48.626;12.486;2023-12-20T13:54:24;7.17;;;3.67;;
12840;SDS011;6487;48.626;12.486;2023-12-20T13:56:53;9.17;;;3.93;;
12840;SDS011;6487;48.626;12.486;2023-12-20T13:59:37;5.80;;;2.53;;
12840;SDS011;6487;48.626;12.486;2023-12-20T14:02:11;2.93;;;2.27;;
12840;SDS011;6487;48.626;12.486;2023-12-20T14:04:39;6.97;;;3.43;;
12840;SDS011;6487;48.626;12.486;2023-12-20T14:07:09;9.37;;;4.23;;
12840;SDS011;6487;48.626;12.486;2023-12-20T14:09:39;8.03;;;3.13;;
12840;SDS011;6487;48.626;12.486;2023-12-20T14:12:12;3.97;;;1.90;;
12840;SDS011;6487;48.626;12.486;2023-12-20T14:14:41;7.67;;;2.80;;
12840;SDS011;6487;48.626;12.486;2023-12-20T14:17:16;3.30;;;1.33;;
12840;SDS011;6487;48.626;12.486;2023-12-20T14:19:45;3.63;;;1.60;;
12840;SDS011;6487;48.626;12.486;2023-12-20T14:22:13;6.17;;;1.97;;
12840;SDS011;6487;48.626;12.486;2023-12-20T14:24:43;3.40;;;1.30;;
12840;SDS011;6487;48.626;12.486;2023-12-20T14:27:12;4.57;;;1.70;;
12840;SDS011;6487;48.626;12.486;2023-12-20T14:29:39;4.00;;;1.47;;
12840;SDS011;6487;48.626;12.486;2023-12-20T14:32:07;2.23;;;1.30;;
12840;SDS011;6487;48.626;12.486;2023-12-20T14:34:37;6.07;;;1.40;;
12840;SDS011;6487;48.626;12.486;2023-12-20T14:37:06;2.70;;;1.07;;
12840;SDS011;6487;48.626;12.486;2023-12-20T14:39:35;2.43;;;1.10;;
12840;SDS011;6487;48.626;12.486;2023-12-20T14:42:05;3.40;;;1.43;;
12840;SDS011;6487;48.626;12.486;2023-12-20T14:44:37;2.63;;;1.27;;
12840;SDS011;6487;48.626;12.486;2023-12-20T14:47:05;2.87;;;0.97;;
12840;SDS011;6487;48.626;12.486;2023-12-20T14:49:34;6.93;;;1.30;;
12840;SDS011;6487;48.626;12.486;2023-12-20T14:52:05;1.70;;;0.90;;
12840;SDS011;6487;48.626;12.486;2023-12-20T14:54:34;3.40;;;1.10;;
12840;SDS011;6487;48.626;12.486;2023-12-20T14:57:02;4.33;;;1.03;;
12840;SDS011;6487;48.626;12.486;2023-12-20T14:59:31;3.57;;;1.10;;
12840;SDS011;6487;48.626;12.486;2023-12-20T15:02:00;2.10;;;1.43;;